createdAt,value
2017-08-23T00:00:22.672Z,72.08
2017-08-23T00:01:03.044Z,71.95
2017-08-23T00:01:43.483Z,72.18
2017-08-23T00:02:23.975Z,71.89
2017-08-23T00:03:04.290Z,72.28
2017-08-23T00:03:44.715Z,72.08
2017-08-23T00:04:25.446Z,71.89
2017-08-23T00:05:05.695Z,71.86
2017-08-23T00:05:46.062Z,71.89
2017-08-23T00:06:26.504Z,72.28
2017-08-23T00:07:06.879Z,72.28
2017-08-23T00:07:47.321Z,72.28
2017-08-23T00:08:27.716Z,72.28
2017-08-23T00:09:08.168Z,72.28
2017-08-23T00:09:48.534Z,72.28
2017-08-23T00:10:28.932Z,71.7
2017-08-23T00:11:09.400Z,71.8
2017-08-23T00:11:49.840Z,71.7
2017-08-23T00:12:30.298Z,72.28
2017-08-23T00:13:10.713Z,72.05
2017-08-23T00:13:51.175Z,71.8
2017-08-23T00:14:31.657Z,72.14
2017-08-23T00:15:12.061Z,72.43
2017-08-23T00:15:52.439Z,72.63
2017-08-23T00:16:32.913Z,72.91
2017-08-23T00:17:13.465Z,73
2017-08-23T00:17:53.847Z,73.3
2017-08-23T00:18:34.255Z,73.39
2017-08-23T00:19:14.704Z,73.1
2017-08-23T00:19:55.132Z,73.68
2017-08-23T00:20:35.516Z,73.68
2017-08-23T00:21:15.971Z,73.49
2017-08-23T00:25:47.808Z,74.89
2017-08-23T00:26:28.664Z,74.6
2017-08-23T00:27:09.232Z,75.08
2017-08-23T00:27:52.481Z,74.89
2017-08-23T00:28:32.935Z,74.89
2017-08-23T00:29:13.576Z,74.98
2017-08-23T00:29:53.875Z,75.56
2017-08-23T00:30:34.339Z,74.89
2017-08-23T00:31:14.999Z,75.56
2017-08-23T00:31:57.091Z,75.37
2017-08-23T00:32:37.151Z,75.27
2017-08-23T00:33:17.579Z,75.27
2017-08-23T00:33:58.057Z,75.46
2017-08-23T00:34:41.287Z,75.46
2017-08-23T00:35:21.669Z,75.37
2017-08-23T00:36:02.109Z,75.46
2017-08-23T00:36:42.525Z,74.89
2017-08-23T00:37:22.937Z,75.08
2017-08-23T00:38:03.352Z,75.37
2017-08-23T00:38:43.768Z,75.37
2017-08-23T00:39:24.387Z,75.46
2017-08-23T00:40:04.736Z,75.27
2017-08-23T00:40:45.298Z,75.18
2017-08-23T00:41:25.740Z,75.27
2017-08-23T00:42:09.798Z,75.27
2017-08-23T00:42:50.575Z,75.37
2017-08-23T00:43:31.976Z,75.27
2017-08-23T00:44:12.352Z,75.18
2017-08-23T00:44:54.870Z,75.56
2017-08-23T00:45:35.266Z,75.37
2017-08-23T00:46:15.681Z,75.65
2017-08-23T00:46:56.186Z,75.65
2017-08-23T00:47:36.604Z,75.18
2017-08-23T00:48:16.977Z,75.37
2017-08-23T00:48:57.456Z,75.46
2017-08-23T00:49:38.213Z,75.46
2017-08-23T00:50:20.245Z,75.46
2017-08-23T00:51:00.641Z,75.46
2017-08-23T00:51:41.263Z,75.37
2017-08-23T00:52:24.254Z,75.65
2017-08-23T00:53:07.369Z,75.37
2017-08-23T00:53:47.790Z,75.37
2017-08-23T00:54:28.112Z,75.27
2017-08-23T00:55:08.575Z,75.27
2017-08-23T00:55:49.054Z,75.46
2017-08-23T00:56:29.494Z,75.46
2017-08-23T00:57:11.891Z,75.56
2017-08-23T00:57:52.452Z,74.98
2017-08-23T00:58:32.899Z,75.37
2017-08-23T00:59:13.439Z,75.46
2017-08-23T00:59:53.738Z,75.27
2017-08-23T01:00:34.116Z,75.27
2017-08-23T01:01:14.609Z,75.08
2017-08-23T01:01:55.061Z,75.27
2017-08-23T01:02:35.492Z,75.37
2017-08-23T01:03:15.840Z,75.37
2017-08-23T01:03:56.236Z,75.27
2017-08-23T01:04:36.608Z,75.75
2017-08-23T01:05:17.066Z,75.27
2017-08-23T01:05:57.427Z,75.37
2017-08-23T01:06:37.923Z,75.46
2017-08-23T01:07:18.317Z,75.27
2017-08-23T01:07:58.765Z,75.37
2017-08-23T01:08:39.283Z,75.37
2017-08-23T01:09:19.756Z,75.65
2017-08-23T01:10:00.309Z,75.75
2017-08-23T01:10:40.558Z,75.75
2017-08-23T01:11:21.061Z,75.65
2017-08-23T01:14:44.418Z,75.56
2017-08-23T01:15:24.910Z,75.37
2017-08-23T01:16:05.166Z,75.37
2017-08-23T01:16:45.724Z,75.18
2017-08-23T01:17:26.146Z,75.65
2017-08-23T01:18:06.543Z,75.56
2017-08-23T01:18:47.049Z,75.75
2017-08-23T01:19:27.408Z,75.75
2017-08-23T01:20:07.772Z,75.65
2017-08-23T01:20:48.311Z,75.65
2017-08-23T01:21:28.628Z,75.65
2017-08-23T01:22:09.083Z,75.75
2017-08-23T01:22:49.493Z,75.46
2017-08-23T01:23:29.932Z,75.56
2017-08-23T01:24:10.258Z,75.37
2017-08-23T01:24:50.801Z,75.56
2017-08-23T01:25:31.127Z,75.56
2017-08-23T01:26:11.576Z,75.46
2017-08-23T01:26:51.951Z,75.65
2017-08-23T01:27:32.405Z,75.56
2017-08-23T01:28:12.887Z,75.56
2017-08-23T01:28:53.301Z,75.75
2017-08-23T01:29:33.757Z,75.46
2017-08-23T01:30:13.996Z,75.85
2017-08-23T01:30:54.488Z,75.56
2017-08-23T01:31:34.796Z,75.75
2017-08-23T01:32:15.208Z,75.56
2017-08-23T01:32:55.591Z,75.18
2017-08-23T01:33:36.072Z,75.4
2017-08-23T01:34:16.467Z,75.5
2017-08-23T01:34:56.931Z,75.4
2017-08-23T01:35:37.265Z,75.27
2017-08-23T01:36:17.765Z,75.46
2017-08-23T01:36:58.149Z,75.4
2017-08-23T01:37:38.515Z,75.08
2017-08-23T01:38:19.047Z,75.37
2017-08-23T01:38:59.390Z,75.56
2017-08-23T01:39:39.817Z,75.37
2017-08-23T01:40:20.238Z,74.98
2017-08-23T01:41:00.623Z,75.5
2017-08-23T01:41:41.073Z,75.18
2017-08-23T01:42:21.448Z,75.08
2017-08-23T01:43:01.982Z,75.65
2017-08-23T01:43:42.246Z,75.75
2017-08-23T01:44:22.706Z,75.95
2017-08-23T01:45:03.114Z,76.32
2017-08-23T01:45:43.455Z,76.48
2017-08-23T01:46:23.889Z,77.15
2017-08-23T01:47:04.331Z,77.63
2017-08-23T01:47:44.804Z,77.73
2017-08-23T01:48:25.136Z,77.92
2017-08-23T01:49:05.556Z,78.2
2017-08-23T01:49:45.965Z,78.02
2017-08-23T01:50:26.404Z,78.4
2017-08-23T01:51:06.744Z,78.49
2017-08-23T01:51:47.171Z,78.36
2017-08-23T01:52:27.641Z,78.2
2017-08-23T01:53:08.106Z,78.88
2017-08-23T01:53:48.447Z,78.88
2017-08-23T01:54:28.861Z,78.74
2017-08-23T01:55:09.301Z,78.11
2017-08-23T01:55:49.688Z,78.2
2017-08-23T01:56:30.027Z,78.36
2017-08-23T01:57:10.449Z,78.84
2017-08-23T01:57:50.925Z,78.78
2017-08-23T01:58:31.370Z,78.4
2017-08-23T01:59:11.790Z,78.3
2017-08-23T01:59:52.277Z,78.49
2017-08-23T02:00:32.805Z,78.2
2017-08-23T02:01:13.166Z,78.49
2017-08-23T02:01:53.828Z,78.4
2017-08-23T02:02:34.320Z,78.4
2017-08-23T02:03:14.718Z,78.4
2017-08-23T02:03:55.071Z,78.55
2017-08-23T02:04:35.509Z,78.49
2017-08-23T02:05:15.892Z,78.11
2017-08-23T02:05:56.410Z,78.3
2017-08-23T02:06:36.903Z,78.11
2017-08-23T02:07:17.189Z,78.02
2017-08-23T02:07:57.847Z,77.92
2017-08-23T02:08:38.204Z,77.92
2017-08-23T02:09:18.716Z,77.92
2017-08-23T02:09:59.102Z,78.11
2017-08-23T02:10:39.513Z,77.82
2017-08-23T02:11:19.877Z,77.63
2017-08-23T02:12:00.240Z,77.88
2017-08-23T02:12:40.763Z,77.63
2017-08-23T02:13:21.161Z,77.82
2017-08-23T02:14:01.572Z,77.82
2017-08-23T02:14:42.033Z,77.92
2017-08-23T02:15:22.400Z,77.53
2017-08-23T02:16:02.875Z,77.63
2017-08-23T02:16:43.196Z,77.44
2017-08-23T02:17:23.666Z,77.06
2017-08-23T02:18:04.150Z,77.15
2017-08-23T02:18:44.597Z,76.67
2017-08-23T02:19:25.019Z,76.57
2017-08-23T02:20:05.536Z,76.57
2017-08-23T02:20:45.933Z,77.15
2017-08-23T02:21:26.407Z,76.86
2017-08-23T02:22:06.887Z,77.15
2017-08-23T02:22:47.323Z,76.96
2017-08-23T02:23:27.721Z,76.57
2017-08-23T02:24:08.157Z,76.77
2017-08-23T02:24:48.577Z,76.77
2017-08-23T02:25:29.003Z,76.48
2017-08-23T02:26:09.407Z,76.77
2017-08-23T02:26:49.875Z,76.48
2017-08-23T02:27:30.323Z,76.48
2017-08-23T02:28:10.681Z,76.57
2017-08-23T02:28:51.213Z,76.57
2017-08-23T02:29:31.565Z,76.86
2017-08-23T02:30:12.022Z,76.67
2017-08-23T02:30:52.434Z,77.15
2017-08-23T02:32:47.781Z,77.53
2017-08-23T02:33:28.013Z,77.44
2017-08-23T02:34:08.415Z,77.73
2017-08-23T02:34:48.808Z,77.73
2017-08-23T02:35:29.319Z,77.53
2017-08-23T02:36:09.778Z,77.44
2017-08-23T02:36:50.145Z,77.63
2017-08-23T02:37:30.569Z,77.44
2017-08-23T02:38:11.057Z,77.44
2017-08-23T02:42:56.127Z,77.92
2017-08-23T02:43:37.505Z,77.73
2017-08-23T02:44:17.966Z,77.92
2017-08-23T02:44:58.380Z,77.82
2017-08-23T02:45:38.795Z,77.73
2017-08-23T02:46:19.250Z,78.02
2017-08-23T02:46:59.603Z,78.02
2017-08-23T02:47:40.005Z,78.2
2017-08-23T02:48:20.387Z,78.11
2017-08-23T02:49:01.375Z,78.11
2017-08-23T02:49:42.132Z,78.2
2017-08-23T02:50:22.278Z,77.92
2017-08-23T02:51:02.868Z,77.92
2017-08-23T02:51:43.277Z,77.53
2017-08-23T02:52:23.614Z,77.63
2017-08-23T02:53:04.080Z,77.82
2017-08-23T02:53:44.474Z,77.82
2017-08-23T02:54:24.866Z,77.63
2017-08-23T02:55:05.322Z,77.82
2017-08-23T02:55:45.831Z,77.63
2017-08-23T02:56:26.251Z,78.2
2017-08-23T02:57:06.628Z,78.02
2017-08-23T02:57:46.996Z,77.82
2017-08-23T02:58:27.451Z,77.92
2017-08-23T02:59:07.838Z,77.63
2017-08-23T02:59:48.311Z,77.53
2017-08-23T03:00:28.716Z,77.73
2017-08-23T03:01:09.158Z,77.63
2017-08-23T03:01:49.501Z,77.44
2017-08-23T03:02:30.005Z,77.92
2017-08-23T03:03:10.305Z,77.82
2017-08-23T03:03:50.652Z,77.73
2017-08-23T03:04:31.106Z,78.02
2017-08-23T03:05:11.504Z,77.63
2017-08-23T03:05:51.865Z,77.73
2017-08-23T03:06:32.255Z,77.73
2017-08-23T03:07:12.707Z,77.63
2017-08-23T03:07:53.074Z,78.3
2017-08-23T03:08:33.449Z,78.11
2017-08-23T03:09:13.857Z,78.02
2017-08-23T03:09:54.274Z,78.11
2017-08-23T03:10:34.697Z,78.59
2017-08-23T03:11:15.066Z,78.2
2017-08-23T03:11:55.556Z,78.11
2017-08-23T03:12:35.938Z,77.63
2017-08-23T03:13:16.355Z,78.11
2017-08-23T03:13:56.719Z,77.92
2017-08-23T03:14:37.153Z,78.4
2017-08-23T03:15:17.532Z,78.02
2017-08-23T03:15:57.942Z,78.59
2017-08-23T03:16:38.241Z,78.59
2017-08-23T03:17:18.662Z,77.92
2017-08-23T03:17:59.033Z,78.49
2017-08-23T03:18:39.515Z,78.2
2017-08-23T03:19:19.911Z,78.49
2017-08-23T03:20:00.582Z,78.02
2017-08-23T03:20:40.722Z,78.07
2017-08-23T03:21:21.129Z,78.3
2017-08-23T03:22:04.069Z,78.49
2017-08-23T03:22:44.004Z,78.4
2017-08-23T03:23:24.456Z,78.45
2017-08-23T03:24:05.405Z,78.36
2017-08-23T03:24:45.775Z,78.36
2017-08-23T03:25:26.216Z,78.27
2017-08-23T03:26:06.673Z,78.74
2017-08-23T03:26:47.049Z,79.16
2017-08-23T03:27:27.510Z,78.84
2017-08-23T03:28:07.929Z,78.93
2017-08-23T03:28:48.441Z,78.93
2017-08-23T03:29:28.811Z,79.13
2017-08-23T03:30:09.158Z,79.03
2017-08-23T03:30:49.590Z,79.6
2017-08-23T03:31:30.028Z,78.84
2017-08-23T03:32:10.456Z,79.51
2017-08-23T03:32:50.893Z,79.51
2017-08-23T03:33:31.302Z,79.51
2017-08-23T03:34:11.733Z,79.13
2017-08-23T03:34:52.114Z,79.03
2017-08-23T03:35:32.756Z,79.6
2017-08-23T03:36:13.143Z,79.03
2017-08-23T03:36:53.824Z,79.13
2017-08-23T03:37:34.000Z,78.64
2017-08-23T03:38:14.445Z,79.22
2017-08-23T03:38:55.159Z,79.07
2017-08-23T03:39:35.587Z,79.32
2017-08-23T03:40:16.301Z,78.78
2017-08-23T03:40:56.626Z,78.74
2017-08-23T03:43:17.637Z,78.74
2017-08-23T03:46:50.512Z,78.45
2017-08-23T03:47:35.418Z,78.17
2017-08-23T03:48:16.175Z,78.74
2017-08-23T03:48:56.352Z,79.13
2017-08-23T03:49:36.756Z,79.03
2017-08-23T03:50:17.203Z,79.13
2017-08-23T03:50:57.539Z,79.03
2017-08-23T03:51:38.949Z,79.13
2017-08-23T03:52:19.298Z,79.13
2017-08-23T03:52:59.665Z,78.93
2017-08-23T03:53:40.354Z,78.64
2017-08-23T03:54:20.812Z,78.93
2017-08-23T03:55:02.418Z,79.03
2017-08-23T03:55:42.830Z,78.74
2017-08-23T03:56:23.305Z,79.03
2017-08-23T03:57:03.658Z,79.13
2017-08-23T03:57:44.126Z,79.13
2017-08-23T03:58:24.441Z,79.03
2017-08-23T03:59:04.862Z,79.03
2017-08-23T03:59:45.354Z,79.22
2017-08-23T04:00:25.765Z,79.03
2017-08-23T04:01:06.213Z,78.64
2017-08-23T04:01:46.587Z,79.03
2017-08-23T04:02:27.066Z,78.84
2017-08-23T04:03:07.503Z,78.84
2017-08-23T04:03:47.906Z,78.74
2017-08-23T04:04:28.369Z,79.03
2017-08-23T04:05:08.992Z,79.32
2017-08-23T04:05:49.452Z,79.03
2017-08-23T04:06:29.837Z,79.03
2017-08-23T04:07:10.249Z,78.74
2017-08-23T04:07:50.625Z,79.03
2017-08-23T04:08:31.088Z,78.93
2017-08-23T04:09:11.473Z,79.03
2017-08-23T04:09:51.908Z,78.45
2017-08-23T04:10:34.002Z,79.13
2017-08-23T04:11:14.432Z,79.03
2017-08-23T04:11:54.784Z,79.13
2017-08-23T04:12:35.216Z,79.03
2017-08-23T04:13:15.659Z,79.32
2017-08-23T04:13:56.060Z,79.51
2017-08-23T04:14:36.504Z,79.03
2017-08-23T04:15:16.887Z,78.84
2017-08-23T04:15:57.680Z,79.6
2017-08-23T04:16:38.106Z,79.03
2017-08-23T04:17:18.501Z,79.03
2017-08-23T04:17:58.962Z,78.64
2017-08-23T04:18:39.539Z,79.03
2017-08-23T04:19:21.211Z,79.41
2017-08-23T04:20:01.635Z,79.6
2017-08-23T04:20:42.014Z,79.7
2017-08-23T04:21:22.464Z,79.13
2017-08-23T04:22:02.915Z,79.13
2017-08-23T04:22:43.871Z,79.03
2017-08-23T04:23:23.894Z,78.74
2017-08-23T04:24:04.373Z,79.32
2017-08-23T04:24:44.741Z,79.13
2017-08-23T04:25:25.145Z,79.6
2017-08-23T04:26:05.874Z,78.64
2017-08-23T04:26:46.122Z,79.03
2017-08-23T04:27:26.545Z,79.22
2017-08-23T04:28:06.910Z,78.93
2017-08-23T04:28:47.483Z,79.22
2017-08-23T04:29:27.812Z,78.64
2017-08-23T04:30:08.296Z,79.03
2017-08-23T04:30:48.743Z,78.74
2017-08-23T04:31:29.182Z,78.59
2017-08-23T04:32:09.494Z,78.55
2017-08-23T04:32:49.869Z,78.74
2017-08-23T04:33:30.244Z,78.59
2017-08-23T04:34:10.669Z,78.74
2017-08-23T04:34:51.188Z,78.27
2017-08-23T04:35:31.506Z,78.59
2017-08-23T04:36:11.865Z,78.3
2017-08-23T04:36:52.331Z,78.55
2017-08-23T04:37:32.827Z,78.59
2017-08-23T04:38:13.124Z,79.36
2017-08-23T04:38:53.517Z,78.49
2017-08-23T04:48:51.973Z,77.63
2017-08-23T04:49:39.038Z,77.44
2017-08-23T04:50:25.204Z,77.06
2017-08-23T04:51:05.466Z,76.96
2017-08-23T04:51:45.936Z,76.77
2017-08-23T04:52:26.406Z,76.57
2017-08-23T04:53:06.814Z,76.9
2017-08-23T04:53:47.339Z,76.42
2017-08-23T04:54:27.697Z,76.23
2017-08-23T04:55:08.084Z,75.85
2017-08-23T04:55:48.558Z,75.56
2017-08-23T04:56:29.002Z,75.56
2017-08-23T04:57:09.417Z,75.56
2017-08-23T04:57:50.281Z,75.18
2017-08-23T04:58:30.163Z,75.18
2017-08-23T04:59:10.753Z,74.89
2017-08-23T04:59:51.045Z,75.37
2017-08-23T05:00:31.463Z,75.02
2017-08-23T05:01:11.874Z,74.35
2017-08-23T05:01:52.277Z,73.97
2017-08-23T05:02:32.723Z,73.87
2017-08-23T05:03:13.153Z,73.68
2017-08-23T05:03:53.521Z,73.77
2017-08-23T05:04:33.995Z,73.33
2017-08-23T05:05:14.475Z,72.47
2017-08-23T05:05:55.480Z,72.47
2017-08-23T05:06:35.535Z,72.28
2017-08-23T05:07:16.012Z,71.98
2017-08-23T05:07:57.900Z,72.28
2017-08-23T05:08:38.625Z,72.28
2017-08-23T05:09:18.893Z,72.75
2017-08-23T05:09:59.254Z,72.28
2017-08-23T05:10:39.669Z,72.85
2017-08-23T05:11:20.527Z,73.04
2017-08-23T05:12:00.864Z,73.1
2017-08-23T05:12:41.322Z,73
2017-08-23T05:13:22.059Z,73
2017-08-23T05:14:02.292Z,73.33
2017-08-23T05:14:43.412Z,72.95
2017-08-23T05:15:23.948Z,72.75
2017-08-23T05:22:38.996Z,67.83
2017-08-23T05:23:19.495Z,67
2017-08-23T05:24:00.624Z,67.19
2017-08-23T05:24:41.087Z,66.71
2017-08-23T05:25:21.693Z,65.78
2017-08-23T05:26:02.099Z,65.46
2017-08-23T05:26:42.384Z,65.27
2017-08-23T05:27:22.873Z,65.3
2017-08-23T05:28:03.528Z,65.17
2017-08-23T05:28:43.894Z,65.66
2017-08-23T05:29:24.368Z,66.14
2017-08-23T05:30:04.943Z,65.66
2017-08-23T05:30:45.327Z,65.84
2017-08-23T05:31:26.734Z,66.23
2017-08-23T05:32:06.900Z,66.23
2017-08-23T05:32:47.614Z,66.23
2017-08-23T05:33:28.070Z,66.42
2017-08-23T05:34:08.358Z,66.42
2017-08-23T05:35:52.752Z,66.23
2017-08-23T05:36:39.831Z,66.14
2017-08-23T05:37:21.419Z,65.75
2017-08-23T05:38:01.829Z,65.3
2017-08-23T05:38:42.336Z,64.25
2017-08-23T05:39:22.868Z,62.83
2017-08-23T05:40:03.277Z,63.51
2017-08-23T05:40:43.618Z,62.26
2017-08-23T05:41:24.136Z,61.71
2017-08-23T05:42:04.521Z,61.04
2017-08-23T05:42:45.085Z,61.22
2017-08-23T05:43:25.472Z,61.22
2017-08-23T05:44:05.893Z,61.1
2017-08-23T05:44:46.336Z,62.16
2017-08-23T05:45:26.843Z,61.77
2017-08-23T05:46:07.265Z,61.68
2017-08-23T05:46:47.784Z,61.52
2017-08-23T05:49:09.011Z,59.91
2017-08-23T05:49:53.267Z,60.07
2017-08-23T05:50:33.680Z,60.17
2017-08-23T05:51:14.091Z,60.75
2017-08-23T05:51:56.233Z,61.04
2017-08-23T05:52:36.701Z,60.75
2017-08-23T05:53:17.704Z,61.32
2017-08-23T05:53:58.243Z,61.19
2017-08-23T05:54:38.620Z,61.87
2017-08-23T05:55:19.137Z,61.68
2017-08-23T05:55:59.435Z,62.16
2017-08-23T05:56:40.011Z,62.16
2017-08-23T05:57:20.478Z,62.45
2017-08-23T05:58:00.904Z,62.26
2017-08-23T05:58:43.383Z,62.35
2017-08-23T05:59:23.703Z,61.77
2017-08-23T06:00:04.350Z,61.68
2017-08-23T06:00:44.826Z,62.16
2017-08-23T06:01:25.279Z,62.35
2017-08-23T06:02:05.828Z,62.35
2017-08-23T06:02:46.326Z,62.45
2017-08-23T06:03:27.066Z,61.77
2017-08-23T06:04:07.600Z,62.06
2017-08-23T06:04:48.031Z,61.77
2017-08-23T06:05:28.564Z,61.77
2017-08-23T06:06:09.078Z,61.71
2017-08-23T06:06:49.623Z,61.42
2017-08-23T06:07:32.704Z,60.97
2017-08-23T06:08:13.267Z,59.81
2017-08-23T06:08:53.954Z,59.81
2017-08-23T06:09:37.243Z,59.62
2017-08-23T06:10:17.805Z,59.97
2017-08-23T06:10:58.339Z,60.07
2017-08-23T06:11:38.929Z,60.27
2017-08-23T06:12:21.986Z,60.1
2017-08-23T06:13:02.597Z,59.23
2017-08-23T06:13:43.228Z,59.27
2017-08-23T06:14:23.486Z,58.49
2017-08-23T06:15:03.848Z,58.11
2017-08-23T06:15:44.299Z,58.01
2017-08-23T06:16:24.731Z,57.65
2017-08-23T06:17:05.386Z,57.07
2017-08-23T06:17:45.735Z,56.69
2017-08-23T06:18:26.144Z,56.3
2017-08-23T06:19:06.752Z,55.56
2017-08-23T06:19:47.214Z,54.79
2017-08-23T06:20:27.702Z,53.75
2017-08-23T06:21:08.215Z,53.75
2017-08-23T06:21:48.622Z,52.79
2017-08-23T06:22:29.080Z,52.43
2017-08-23T06:23:09.532Z,51.75
2017-08-23T06:23:50.023Z,51.85
2017-08-23T06:24:30.428Z,51.95
2017-08-23T06:25:10.871Z,51.75
2017-08-23T06:25:54.038Z,50.81
2017-08-23T06:26:34.438Z,50.33
2017-08-23T06:27:14.914Z,50.33
2017-08-23T06:29:29.133Z,50.81
2017-08-23T06:30:16.602Z,50.13
2017-08-23T06:30:57.327Z,50.13
2017-08-23T06:31:37.852Z,50.79
2017-08-23T06:32:18.755Z,50.79
2017-08-23T06:32:59.251Z,50.89
2017-08-23T06:33:39.619Z,50.98
2017-08-23T06:34:20.149Z,52.59
2017-08-23T06:35:00.644Z,53.83
2017-08-23T06:35:41.121Z,53.56
2017-08-23T06:36:21.614Z,53.95
2017-08-23T06:37:02.050Z,53.47
2017-08-23T06:37:42.420Z,52.89
2017-08-23T06:38:22.973Z,52.69
2017-08-23T06:39:03.402Z,52.23
2017-08-23T06:39:43.883Z,51.56
2017-08-23T06:40:24.274Z,51.75
2017-08-23T06:41:04.728Z,51.95
2017-08-23T06:41:45.601Z,50.98
2017-08-23T06:42:26.377Z,50.62
2017-08-23T06:43:07.363Z,50.62
2017-08-23T06:44:01.797Z,49.75
2017-08-23T06:44:42.283Z,50.23
2017-08-23T06:45:22.800Z,50.04
2017-08-23T06:46:03.228Z,50.04
2017-08-23T06:46:43.784Z,50.23
2017-08-23T06:49:00.398Z,51.46
2017-08-23T06:49:40.014Z,51.07
2017-08-23T06:50:20.422Z,51.37
2017-08-23T06:51:01.130Z,51.53
2017-08-23T06:51:41.464Z,51.44
2017-08-23T06:52:21.955Z,52.21
2017-08-23T06:53:02.572Z,52.86
2017-08-23T06:53:43.019Z,53.53
2017-08-23T06:54:23.458Z,53.44
2017-08-23T06:55:04.061Z,53.73
2017-08-23T06:55:44.466Z,53.85
2017-08-23T06:56:24.921Z,52.89
2017-08-23T06:57:05.416Z,52.59
2017-08-23T06:57:45.908Z,52.31
2017-08-23T06:58:26.463Z,52.31
2017-08-23T06:59:07.447Z,52.69
2017-08-23T06:59:48.018Z,52.89
2017-08-23T07:00:29.445Z,52.79
2017-08-23T07:01:09.927Z,53.27
2017-08-23T07:01:50.634Z,53.25
2017-08-23T07:02:31.268Z,53.44
2017-08-23T07:03:12.118Z,53.85
2017-08-23T07:03:52.695Z,53.66
2017-08-23T07:04:33.134Z,53.83
2017-08-23T07:05:13.566Z,54.4
2017-08-23T07:05:54.518Z,54.21
2017-08-23T07:08:34.685Z,53.75
2017-08-23T07:11:09.443Z,54.11
2017-08-23T07:20:07.936Z,51.75
2017-08-23T07:20:48.472Z,51.27
2017-08-23T07:21:28.996Z,51.01
2017-08-23T07:22:09.593Z,50.89
2017-08-23T07:22:50.619Z,51.85
2017-08-23T07:23:31.061Z,52.79
2017-08-23T07:24:11.454Z,52.69
2017-08-23T07:24:51.916Z,52.79
2017-08-23T07:25:32.657Z,52.89
2017-08-23T07:26:13.100Z,52.69
2017-08-23T07:26:53.481Z,52.81
2017-08-23T07:27:33.937Z,51.53
2017-08-23T07:28:14.707Z,52.31
2017-08-23T07:28:55.059Z,52.4
2017-08-23T07:29:35.582Z,52.01
2017-08-23T07:30:15.965Z,52.01
2017-08-23T07:30:56.534Z,52.59
2017-08-23T07:31:36.885Z,52.69
2017-08-23T07:32:17.287Z,53.37
2017-08-23T07:32:57.641Z,53.95
2017-08-23T07:33:38.135Z,53.39
2017-08-23T07:34:18.544Z,53.2
2017-08-23T07:34:59.028Z,51.75
2017-08-23T07:35:39.544Z,51.56
2017-08-23T07:36:20.018Z,51.39
2017-08-23T07:37:00.475Z,50.71
2017-08-23T07:37:40.854Z,51.39
2017-08-23T07:38:21.452Z,50.65
2017-08-23T07:39:01.913Z,50.35
2017-08-23T07:39:42.300Z,49.99
2017-08-23T07:40:22.655Z,49.12
2017-08-23T07:41:03.123Z,49.12
2017-08-23T07:41:43.724Z,48.83
2017-08-23T07:43:33.819Z,48.83
2017-08-23T07:44:14.070Z,48.83
2017-08-23T07:44:54.562Z,48.64
2017-08-23T07:45:35.042Z,49.19
2017-08-23T07:46:15.558Z,49.39
2017-08-23T07:46:59.727Z,50.43
2017-08-23T07:47:40.026Z,50.81
2017-08-23T07:48:20.490Z,50.71
2017-08-23T07:49:00.958Z,50.71
2017-08-23T07:49:41.526Z,50.13
2017-08-23T07:50:22.004Z,50.16
2017-08-23T07:51:02.375Z,50.16
2017-08-23T07:51:42.793Z,50.07
2017-08-23T07:52:24.023Z,49.97
2017-08-23T07:53:04.412Z,49.87
2017-08-23T07:53:45.250Z,50.16
2017-08-23T07:54:25.717Z,50.16
2017-08-23T07:55:06.137Z,49.41
2017-08-23T07:55:46.558Z,48.83
2017-08-23T07:56:26.991Z,48.64
2017-08-23T07:57:07.410Z,48.54
2017-08-23T07:57:47.905Z,48.74
2017-08-23T07:58:28.377Z,48.37
2017-08-23T07:59:08.748Z,48.37
2017-08-23T07:59:49.179Z,47.99
2017-08-23T08:00:29.630Z,48.18
2017-08-23T08:01:10.035Z,48.16
2017-08-23T08:01:50.486Z,48.74
2017-08-23T08:02:30.928Z,49.12
2017-08-23T08:03:11.346Z,49.22
2017-08-23T08:03:51.785Z,49.19
2017-08-23T08:04:33.235Z,49.6
2017-08-23T08:05:13.647Z,49.58
2017-08-23T08:05:54.203Z,49.29
2017-08-23T08:06:34.632Z,49.41
2017-08-23T08:07:15.049Z,49.32
2017-08-23T08:07:55.485Z,49.6
2017-08-23T08:08:35.994Z,49.8
2017-08-23T08:09:16.377Z,49.7
2017-08-23T08:09:56.785Z,49.12
2017-08-23T08:10:37.233Z,48.93
2017-08-23T08:11:17.671Z,49.02
2017-08-23T08:11:58.067Z,48.86
2017-08-23T08:12:38.508Z,48.57
2017-08-23T08:13:18.891Z,48.64
2017-08-23T08:13:59.355Z,49.12
2017-08-23T08:14:40.520Z,49.68
2017-08-23T08:15:20.966Z,50.07
2017-08-23T08:16:01.442Z,50.16
2017-08-23T08:16:41.939Z,50.07
2017-08-23T08:17:22.284Z,50.07
2017-08-23T08:18:02.761Z,50.07
2017-08-23T08:18:44.019Z,49.41
2017-08-23T08:19:25.088Z,49.41
2017-08-23T08:20:05.493Z,49.22
2017-08-23T08:20:47.357Z,48.93
2017-08-23T08:21:28.364Z,49.8
2017-08-23T08:22:10.936Z,49.34
2017-08-23T08:22:51.437Z,48.95
2017-08-23T08:23:31.846Z,48.3
2017-08-23T08:24:13.891Z,46.94
2017-08-23T08:24:54.111Z,46.77
2017-08-23T08:25:35.166Z,46.67
2017-08-23T08:26:15.645Z,46.39
2017-08-23T08:26:56.094Z,46.29
2017-08-23T08:27:36.566Z,45.42
2017-08-23T08:28:17.642Z,45.81
2017-08-23T08:28:57.592Z,46.09
2017-08-23T08:29:38.300Z,45.88
2017-08-23T08:35:46.946Z,46.84
2017-08-23T08:36:27.268Z,46.56
2017-08-23T08:37:08.033Z,46.75
2017-08-23T08:37:48.860Z,47.24
2017-08-23T08:38:29.494Z,47.43
2017-08-23T08:39:09.935Z,47.81
2017-08-23T08:39:50.344Z,47.26
2017-08-23T08:40:31.053Z,46.97
2017-08-23T08:41:11.496Z,45.73
2017-08-23T08:41:53.269Z,44.59
2017-08-23T08:44:10.835Z,44.32
2017-08-23T08:49:36.183Z,41.72
2017-08-23T08:50:16.569Z,41.72
2017-08-23T08:50:56.999Z,41.82
2017-08-23T08:51:37.489Z,41.63
2017-08-23T08:52:19.100Z,41.92
2017-08-23T08:53:01.235Z,42.02
2017-08-23T08:53:41.687Z,41.94
2017-08-23T08:54:22.238Z,41.74
2017-08-23T08:55:02.677Z,41.86
2017-08-23T08:55:43.477Z,41.67
2017-08-23T08:56:24.083Z,40.41
2017-08-23T08:57:04.540Z,40.01
2017-08-23T08:57:44.934Z,39.65
2017-08-23T08:58:25.651Z,39.55
2017-08-23T08:59:05.904Z,39.45
2017-08-23T08:59:46.458Z,39.55
2017-08-23T09:00:26.938Z,39.26
2017-08-23T09:01:07.520Z,38.79
2017-08-23T09:01:47.791Z,38.6
2017-08-23T09:02:28.278Z,38.6
2017-08-23T09:03:09.130Z,39.18
2017-08-23T09:03:49.774Z,38.6
2017-08-23T09:04:30.337Z,38.71
2017-08-23T09:05:11.159Z,38.5
2017-08-23T09:05:51.800Z,38.89
2017-08-23T09:06:32.515Z,38.89
2017-08-23T09:07:13.764Z,39.08
2017-08-23T09:07:54.428Z,38.98
2017-08-23T09:08:35.496Z,39.18
2017-08-23T09:09:15.799Z,39.47
2017-08-23T09:09:56.546Z,39.08
2017-08-23T09:10:37.525Z,37.62
2017-08-23T09:11:18.382Z,38.01
2017-08-23T09:12:00.497Z,38.7
2017-08-23T09:12:40.780Z,38.5
2017-08-23T09:13:21.222Z,39.08
2017-08-23T09:14:01.670Z,38.7
2017-08-23T09:14:42.105Z,38.31
2017-08-23T09:15:22.534Z,38.03
2017-08-23T09:16:03.274Z,37.64
2017-08-23T09:16:43.779Z,37.46
2017-08-23T09:17:24.333Z,37.45
2017-08-23T09:18:04.783Z,37.54
2017-08-23T09:18:45.242Z,37.54
2017-08-23T09:19:25.594Z,37.64
2017-08-23T09:20:09.066Z,38.21
2017-08-23T09:20:49.482Z,38.11
2017-08-23T09:21:29.893Z,38.01
2017-08-23T09:22:10.305Z,38.29
2017-08-23T09:22:50.798Z,38.09
2017-08-23T09:23:31.199Z,38.48
2017-08-23T09:24:11.647Z,39.45
2017-08-23T09:24:52.101Z,39.72
2017-08-23T09:25:32.508Z,40.01
2017-08-23T09:26:13.113Z,40.01
2017-08-23T09:26:53.490Z,40.41
2017-08-23T09:27:33.870Z,39.53
2017-08-23T09:28:14.298Z,39.62
2017-08-23T09:28:54.734Z,39.84
2017-08-23T09:29:35.190Z,39.84
2017-08-23T09:30:15.697Z,38.96
2017-08-23T09:30:56.023Z,39.08
2017-08-23T09:31:36.679Z,39.06
2017-08-23T09:32:17.272Z,39.55
2017-08-23T09:32:57.635Z,39.45
2017-08-23T09:33:38.068Z,38.96
2017-08-23T09:34:18.505Z,39.16
2017-08-23T09:34:58.946Z,39.06
2017-08-23T09:35:39.342Z,38.87
2017-08-23T09:36:19.859Z,38.77
2017-08-23T09:37:00.265Z,39.04
2017-08-23T09:37:40.760Z,39.26
2017-08-23T09:38:21.189Z,39.82
2017-08-23T09:39:01.576Z,39.94
2017-08-23T09:39:42.073Z,39.26
2017-08-23T09:40:22.573Z,38.96
2017-08-23T09:41:03.108Z,38.77
2017-08-23T09:41:43.473Z,39.53
2017-08-23T09:42:23.906Z,40.31
2017-08-23T09:43:04.775Z,40.11
2017-08-23T09:43:45.824Z,39.92
2017-08-23T09:44:26.938Z,39.53
2017-08-23T09:45:06.916Z,39.82
2017-08-23T09:45:48.285Z,39.45
2017-08-23T09:46:28.761Z,39.53
2017-08-23T09:47:10.431Z,39.06
2017-08-23T09:47:51.349Z,37.99
2017-08-23T09:48:32.863Z,37.51